sensor_id;sensor_type;location;lat;lon;timestamp;pressure;altitude;pressure_sealevel;temperature;humidity
62051;BME280;48008;51.204;6.766;2022-12-01T00:01:05;102093.34;;;6.09;100.00
62051;BME280;48008;51.204;6.766;2022-12-01T00:03:33;102102.09;;;6.10;100.00
62051;BME280;48008;51.204;6.766;2022-12-01T00:06:03;102092.84;;;6.03;100.00
62051;BME280;48008;51.204;6.766;2022-12-01T00:08:31;102091.22;;;6.00;100.00
62051;BME280;48008;51.204;6.766;2022-12-01T00:11:08;102096.06;;;6.08;100.00
62051;BME280;48008;51.204;6.766;2022-12-01T00:13:35;102089.84;;;6.09;100.00
62051;BME280;48008;51.204;6.766;2022-12-01T00:16:11;102085.88;;;6.02;100.00
62051;BME280;48008;51.204;6.766;2022-12-01T00:18:39;102089.16;;;6.05;100.00
62051;BME280;48008;51.204;6.766;2022-12-01T00:21:12;102090.22;;;6.17;100.00
62051;BME280;48008;51.204;6.766;2022-12-01T00:23:42;102088.34;;;6.05;99.80
62051;BME280;48008;51.204;6.766;2022-12-01T00:26:09;102080.03;;;5.96;100.00
62051;BME280;48008;51.204;6.766;2022-12-01T00:28:35;102083.66;;;5.94;100.00
62051;BME280;48008;51.204;6.766;2022-12-01T00:31:06;102084.28;;;5.99;100.00
62051;BME280;48008;51.204;6.766;2022-12-01T00:33:33;102083.53;;;5.97;100.00
62051;BME280;48008;51.204;6.766;2022-12-01T00:36:00;102076.91;;;5.90;100.00
62051;BME280;48008;51.204;6.766;2022-12-01T00:38:27;102076.56;;;5.80;100.00
62051;BME280;48008;51.204;6.766;2022-12-01T00:40:54;102079.41;;;5.77;100.00
62051;BME280;48008;51.204;6.766;2022-12-01T00:43:21;102078.34;;;5.80;100.00
62051;BME280;48008;51.204;6.766;2022-12-01T00:45:47;102086.00;;;5.84;100.00
62051;BME280;48008;51.204;6.766;2022-12-01T00:48:14;102081.66;;;5.83;100.00
62051;BME280;48008;51.204;6.766;2022-12-01T00:50:42;102079.41;;;5.77;100.00
62051;BME280;48008;51.204;6.766;2022-12-01T00:53:08;102080.25;;;5.77;100.00
62051;BME280;48008;51.204;6.766;2022-12-01T00:55:35;102080.53;;;5.87;100.00
62051;BME280;48008;51.204;6.766;2022-12-01T00:58:02;102086.38;;;5.92;100.00
62051;BME280;48008;51.204;6.766;2022-12-01T01:00:29;102083.59;;;5.95;100.00
62051;BME280;48008;51.204;6.766;2022-12-01T01:02:56;102094.53;;;6.04;100.00
62051;BME280;48008;51.204;6.766;2022-12-01T01:05:23;102087.56;;;6.03;100.00
62051;BME280;48008;51.204;6.766;2022-12-01T01:07:49;102099.72;;;6.05;100.00
62051;BME280;48008;51.204;6.766;2022-12-01T01:10:16;102095.19;;;6.07;99.90
62051;BME280;48008;51.204;6.766;2022-12-01T01:12:43;102097.16;;;6.04;99.68
62051;BME280;48008;51.204;6.766;2022-12-01T01:15:09;102093.72;;;6.18;99.70
62051;BME280;48008;51.204;6.766;2022-12-01T01:17:36;102098.59;;;6.24;100.00
62051;BME280;48008;51.204;6.766;2022-12-01T01:20:03;102096.84;;;6.24;99.80
62051;BME280;48008;51.204;6.766;2022-12-01T01:22:30;102091.47;;;6.26;99.80
62051;BME280;48008;51.204;6.766;2022-12-01T01:24:56;102104.81;;;6.23;99.61
62051;BME280;48008;51.204;6.766;2022-12-01T01:27:23;102109.03;;;6.11;100.00
62051;BME280;48008;51.204;6.766;2022-12-01T01:29:50;102106.09;;;6.01;100.00
62051;BME280;48008;51.204;6.766;2022-12-01T01:32:16;102101.34;;;5.92;100.00
62051;BME280;48008;51.204;6.766;2022-12-01T01:34:44;102106.34;;;5.96;100.00
62051;BME280;48008;51.204;6.766;2022-12-01T01:37:10;102105.88;;;5.90;100.00
62051;BME280;48008;51.204;6.766;2022-12-01T01:39:37;102103.19;;;5.75;100.00
62051;BME280;48008;51.204;6.766;2022-12-01T01:42:04;102103.28;;;5.74;100.00
62051;BME280;48008;51.204;6.766;2022-12-01T01:44:55;102106.06;;;5.71;100.00
62051;BME280;48008;51.204;6.766;2022-12-01T01:47:26;102114.94;;;5.70;100.00
62051;BME280;48008;51.204;6.766;2022-12-01T01:49:56;102114.16;;;5.68;100.00
62051;BME280;48008;51.204;6.766;2022-12-01T01:52:26;102116.28;;;5.77;100.00
62051;BME280;48008;51.204;6.766;2022-12-01T01:54:54;102115.22;;;5.80;100.00
62051;BME280;48008;51.204;6.766;2022-12-01T01:57:26;102117.09;;;5.77;100.00
62051;BME280;48008;51.204;6.766;2022-12-01T01:59:58;102117.94;;;5.78;100.00
62051;BME280;48008;51.204;6.766;2022-12-01T02:02:27;102115.59;;;5.73;100.00
62051;BME280;48008;51.204;6.766;2022-12-01T02:04:59;102118.81;;;5.79;100.00
62051;BME280;48008;51.204;6.766;2022-12-01T02:07:27;102109.38;;;5.74;100.00
62051;BME280;48008;51.204;6.766;2022-12-01T02:09:54;102111.16;;;5.74;100.00
62051;BME280;48008;51.204;6.766;2022-12-01T02:12:45;102117.94;;;5.78;100.00
62051;BME280;48008;51.204;6.766;2022-12-01T02:15:24;102113.72;;;5.75;100.00
62051;BME280;48008;51.204;6.766;2022-12-01T02:21:17;102120.09;;;5.71;100.00
62051;BME280;48008;51.204;6.766;2022-12-01T02:24:19;102116.38;;;5.60;100.00
62051;BME280;48008;51.204;6.766;2022-12-01T02:26:50;102121.31;;;5.66;100.00
62051;BME280;48008;51.204;6.766;2022-12-01T02:29:41;102114.16;;;5.68;100.00
62051;BME280;48008;51.204;6.766;2022-12-01T02:32:55;102110.66;;;5.67;100.00
62051;BME280;48008;51.204;6.766;2022-12-01T02:41:17;102111.47;;;5.84;100.00
62051;BME280;48008;51.204;6.766;2022-12-01T02:43:57;102110.47;;;5.86;100.00
62051;BME280;48008;51.204;6.766;2022-12-01T02:46:31;102104.91;;;5.91;100.00
62051;BME280;48008;51.204;6.766;2022-12-01T02:49:03;102107.25;;;5.81;100.00
62051;BME280;48008;51.204;6.766;2022-12-01T02:51:35;102117.25;;;5.90;100.00
62051;BME280;48008;51.204;6.766;2022-12-01T02:54:05;102111.47;;;6.00;100.00
62051;BME280;48008;51.204;6.766;2022-12-01T02:56:32;102103.91;;;5.93;100.00
62051;BME280;48008;51.204;6.766;2022-12-01T02:58:59;102107.63;;;5.89;100.00
62051;BME280;48008;51.204;6.766;2022-12-01T03:02:08;102103.97;;;5.92;100.00
62051;BME280;48008;51.204;6.766;2022-12-01T03:04:36;102111.31;;;5.87;100.00
62051;BME280;48008;51.204;6.766;2022-12-01T03:16:12;102106.28;;;5.68;100.00
62051;BME280;48008;51.204;6.766;2022-12-01T03:19:01;102116.06;;;5.66;100.00
62051;BME280;48008;51.204;6.766;2022-12-01T03:21:37;102113.31;;;5.67;100.00
62051;BME280;48008;51.204;6.766;2022-12-01T03:24:11;102109.00;;;5.66;100.00
62051;BME280;48008;51.204;6.766;2022-12-01T03:26:41;102104.19;;;5.58;100.00
62051;BME280;48008;51.204;6.766;2022-12-01T03:29:15;102113.66;;;5.61;100.00
62051;BME280;48008;51.204;6.766;2022-12-01T03:31:47;102105.94;;;5.58;100.00
62051;BME280;48008;51.204;6.766;2022-12-01T03:34:21;102107.66;;;5.59;100.00
62051;BME280;48008;51.204;6.766;2022-12-01T03:36:54;102109.16;;;5.63;100.00
62051;BME280;48008;51.204;6.766;2022-12-01T03:39:28;102104.66;;;5.65;100.00
62051;BME280;48008;51.204;6.766;2022-12-01T03:42:02;102110.13;;;5.62;100.00
62051;BME280;48008;51.204;6.766;2022-12-01T03:44:40;102111.53;;;5.68;100.00
62051;BME280;48008;51.204;6.766;2022-12-01T03:47:15;102117.91;;;5.64;100.00
62051;BME280;48008;51.204;6.766;2022-12-01T03:49:44;102110.13;;;5.62;100.00
62051;BME280;48008;51.204;6.766;2022-12-01T03:52:23;102110.72;;;5.51;100.00
62051;BME280;48008;51.204;6.766;2022-12-01T03:55:18;102110.88;;;5.48;100.00
62051;BME280;48008;51.204;6.766;2022-12-01T04:00:32;102114.97;;;5.38;100.00
62051;BME280;48008;51.204;6.766;2022-12-01T04:03:01;102119.47;;;5.36;100.00
62051;BME280;48008;51.204;6.766;2022-12-01T04:05:31;102118.09;;;5.45;100.00
62051;BME280;48008;51.204;6.766;2022-12-01T04:07:58;102121.78;;;5.42;100.00
62051;BME280;48008;51.204;6.766;2022-12-01T04:10:25;102114.72;;;5.43;100.00
62051;BME280;48008;51.204;6.766;2022-12-01T04:12:51;102109.19;;;5.47;100.00
62051;BME280;48008;51.204;6.766;2022-12-01T04:15:25;102118.25;;;5.57;100.00
62051;BME280;48008;51.204;6.766;2022-12-01T04:17:52;102123.84;;;5.67;100.00
62051;BME280;48008;51.204;6.766;2022-12-01T04:20:19;102123.75;;;5.69;100.00
62051;BME280;48008;51.204;6.766;2022-12-01T04:22:46;102118.75;;;5.64;100.00
62051;BME280;48008;51.204;6.766;2022-12-01T04:25:13;102118.00;;;5.62;100.00
62051;BME280;48008;51.204;6.766;2022-12-01T04:27:40;102117.22;;;5.60;100.00
62051;BME280;48008;51.204;6.766;2022-12-01T04:30:08;102118.69;;;5.66;100.00
62051;BME280;48008;51.204;6.766;2022-12-01T04:32:38;102119.09;;;5.58;100.00
62051;BME280;48008;51.204;6.766;2022-12-01T04:35:06;102113.00;;;5.57;100.00
62051;BME280;48008;51.204;6.766;2022-12-01T04:37:33;102111.41;;;5.55;100.00
62051;BME280;48008;51.204;6.766;2022-12-01T04:40:00;102109.06;;;5.65;100.00
62051;BME280;48008;51.204;6.766;2022-12-01T04:42:26;102110.19;;;5.61;100.00
62051;BME280;48008;51.204;6.766;2022-12-01T04:44:53;102110.13;;;5.62;100.00
62051;BME280;48008;51.204;6.766;2022-12-01T04:47:20;102109.31;;;5.60;100.00
62051;BME280;48008;51.204;6.766;2022-12-01T04:49:46;102102.59;;;5.70;100.00
62051;BME280;48008;51.204;6.766;2022-12-01T04:52:13;102105.72;;;5.77;100.00
62051;BME280;48008;51.204;6.766;2022-12-01T04:54:41;102110.53;;;5.85;100.00
62051;BME280;48008;51.204;6.766;2022-12-01T04:57:08;102104.53;;;5.83;99.52
62051;BME280;48008;51.204;6.766;2022-12-01T04:59:35;102108.16;;;5.80;98.99
62051;BME280;48008;51.204;6.766;2022-12-01T05:02:01;102105.53;;;5.80;99.60
62051;BME280;48008;51.204;6.766;2022-12-01T05:04:29;102107.50;;;5.76;99.99
62051;BME280;48008;51.204;6.766;2022-12-01T05:06:57;102105.28;;;5.85;99.50
62051;BME280;48008;51.204;6.766;2022-12-01T05:09:24;102108.84;;;5.84;98.84
62051;BME280;48008;51.204;6.766;2022-12-01T05:11:51;102106.94;;;5.71;99.20
62051;BME280;48008;51.204;6.766;2022-12-01T05:14:17;102110.72;;;5.82;99.08
62051;BME280;48008;51.204;6.766;2022-12-01T05:16:44;102109.78;;;5.83;98.41
62051;BME280;48008;51.204;6.766;2022-12-01T05:19:11;102107.16;;;5.83;98.51
62051;BME280;48008;51.204;6.766;2022-12-01T05:21:58;102112.91;;;5.89;98.69
62051;BME280;48008;51.204;6.766;2022-12-01T05:24:24;102113.25;;;5.99;97.76
62051;BME280;48008;51.204;6.766;2022-12-01T05:26:51;102113.44;;;5.80;98.12
62051;BME280;48008;51.204;6.766;2022-12-01T05:29:18;102112.09;;;5.73;98.87
62051;BME280;48008;51.204;6.766;2022-12-01T05:31:45;102112.59;;;5.80;98.58
62051;BME280;48008;51.204;6.766;2022-12-01T05:34:12;102108.91;;;5.68;99.76
62051;BME280;48008;51.204;6.766;2022-12-01T05:36:39;102118.84;;;5.63;98.80
62051;BME280;48008;51.204;6.766;2022-12-01T05:39:07;102122.47;;;5.76;99.05
62051;BME280;48008;51.204;6.766;2022-12-01T05:41:34;102119.75;;;5.77;99.08
62051;BME280;48008;51.204;6.766;2022-12-01T05:44:00;102130.44;;;5.74;99.18
62051;BME280;48008;51.204;6.766;2022-12-01T05:46:27;102133.28;;;5.71;98.77
62051;BME280;48008;51.204;6.766;2022-12-01T05:48:54;102125.47;;;5.70;98.58
62051;BME280;48008;51.204;6.766;2022-12-01T05:51:20;102137.75;;;5.69;99.45
62051;BME280;48008;51.204;6.766;2022-12-01T05:53:48;102129.53;;;5.60;98.89
62051;BME280;48008;51.204;6.766;2022-12-01T05:56:14;102128.72;;;5.59;99.16
62051;BME280;48008;51.204;6.766;2022-12-01T05:58:41;102125.38;;;5.71;99.33
62051;BME280;48008;51.204;6.766;2022-12-01T06:01:08;102122.75;;;5.71;98.60
62051;BME280;48008;51.204;6.766;2022-12-01T06:03:35;102128.25;;;5.67;98.71
62051;BME280;48008;51.204;6.766;2022-12-01T06:06:01;102125.38;;;5.71;99.10
62051;BME280;48008;51.204;6.766;2022-12-01T06:08:28;102129.34;;;5.79;98.85
62051;BME280;48008;51.204;6.766;2022-12-01T06:10:55;102129.06;;;5.83;98.78
62051;BME280;48008;51.204;6.766;2022-12-01T06:13:21;102132.28;;;5.88;98.60
62051;BME280;48008;51.204;6.766;2022-12-01T06:16:00;102134.94;;;5.72;98.49
62051;BME280;48008;51.204;6.766;2022-12-01T06:18:31;102135.28;;;5.82;98.66
62051;BME280;48008;51.204;6.766;2022-12-01T06:20:57;102140.09;;;5.90;98.19
62051;BME280;48008;51.204;6.766;2022-12-01T06:23:24;102145.31;;;5.75;99.00
62051;BME280;48008;51.204;6.766;2022-12-01T06:25:54;102143.38;;;5.63;99.13
62051;BME280;48008;51.204;6.766;2022-12-01T06:28:21;102145.84;;;5.66;100.00
62051;BME280;48008;51.204;6.766;2022-12-01T06:30:47;102151.34;;;5.77;99.30
62051;BME280;48008;51.204;6.766;2022-12-01T06:33:14;102145.91;;;5.81;99.51
62051;BME280;48008;51.204;6.766;2022-12-01T06:35:41;102146.66;;;5.83;98.76
62051;BME280;48008;51.204;6.766;2022-12-01T06:38:07;102147.41;;;5.85;99.70
62051;BME280;48008;51.204;6.766;2022-12-01T06:40:34;102150.81;;;5.87;99.13
62051;BME280;48008;51.204;6.766;2022-12-01T06:43:01;102144.47;;;5.75;100.00
62051;BME280;48008;51.204;6.766;2022-12-01T06:45:29;102153.16;;;5.61;100.00
62051;BME280;48008;51.204;6.766;2022-12-01T06:47:56;102155.25;;;5.70;100.00
62051;BME280;48008;51.204;6.766;2022-12-01T06:50:23;102155.53;;;5.66;100.00
62051;BME280;48008;51.204;6.766;2022-12-01T06:52:50;102153.75;;;5.66;100.00
62051;BME280;48008;51.204;6.766;2022-12-01T06:55:18;102154.91;;;5.76;100.00
62051;BME280;48008;51.204;6.766;2022-12-01T06:57:45;102161.50;;;5.84;100.00
62051;BME280;48008;51.204;6.766;2022-12-01T07:00:13;102160.84;;;5.80;100.00
62051;BME280;48008;51.204;6.766;2022-12-01T07:02:40;102159.16;;;5.79;99.19
62051;BME280;48008;51.204;6.766;2022-12-01T07:05:06;102155.19;;;5.72;99.75
62051;BME280;48008;51.204;6.766;2022-12-01T07:07:36;102153.56;;;5.69;99.55
62051;BME280;48008;51.204;6.766;2022-12-01T07:10:06;102154.66;;;5.65;99.65
62051;BME280;48008;51.204;6.766;2022-12-01T07:12:33;102157.13;;;5.68;99.96
62051;BME280;48008;51.204;6.766;2022-12-01T07:15:00;102166.72;;;5.69;100.00
62051;BME280;48008;51.204;6.766;2022-12-01T07:17:27;102169.88;;;5.60;99.76
62051;BME280;48008;51.204;6.766;2022-12-01T07:19:55;102168.13;;;5.61;100.00
62051;BME280;48008;51.204;6.766;2022-12-01T07:22:23;102167.84;;;5.65;100.00
62051;BME280;48008;51.204;6.766;2022-12-01T07:24:51;102177.09;;;5.72;99.64
62051;BME280;48008;51.204;6.766;2022-12-01T07:27:18;102168.25;;;5.73;99.84
62051;BME280;48008;51.204;6.766;2022-12-01T07:29:44;102173.84;;;5.67;98.80
62051;BME280;48008;51.204;6.766;2022-12-01T07:32:12;102168.78;;;5.64;99.07
62051;BME280;48008;51.204;6.766;2022-12-01T07:34:39;102167.31;;;5.74;99.32
62051;BME280;48008;51.204;6.766;2022-12-01T07:37:05;102165.72;;;5.72;99.17
62051;BME280;48008;51.204;6.766;2022-12-01T07:39:32;102172.84;;;5.86;99.48
62051;BME280;48008;51.204;6.766;2022-12-01T07:41:58;102179.31;;;5.94;99.00
62051;BME280;48008;51.204;6.766;2022-12-01T07:44:25;102176.78;;;5.93;98.40
62051;BME280;48008;51.204;6.766;2022-12-01T07:46:53;102178.56;;;5.92;98.64
62051;BME280;48008;51.204;6.766;2022-12-01T07:49:19;102176.03;;;5.91;97.82
62051;BME280;48008;51.204;6.766;2022-12-01T07:51:46;102177.47;;;5.96;98.37
62051;BME280;48008;51.204;6.766;2022-12-01T07:54:13;102177.66;;;5.93;98.27
62051;BME280;48008;51.204;6.766;2022-12-01T07:56:40;102180.69;;;6.02;97.60
62051;BME280;48008;51.204;6.766;2022-12-01T07:59:07;102181.00;;;5.97;97.84
62051;BME280;48008;51.204;6.766;2022-12-01T08:01:35;102176.69;;;5.94;97.78
62051;BME280;48008;51.204;6.766;2022-12-01T08:04:03;102187.31;;;5.93;97.76
62051;BME280;48008;51.204;6.766;2022-12-01T08:06:30;102183.63;;;5.97;97.38
62051;BME280;48008;51.204;6.766;2022-12-01T08:08:57;102183.00;;;6.08;97.35
62051;BME280;48008;51.204;6.766;2022-12-01T08:11:25;102191.34;;;5.84;97.10
62051;BME280;48008;51.204;6.766;2022-12-01T08:13:54;102188.28;;;5.76;97.77
62051;BME280;48008;51.204;6.766;2022-12-01T08:16:22;102192.13;;;5.70;99.09
62051;BME280;48008;51.204;6.766;2022-12-01T08:18:50;102194.16;;;5.81;98.47
62051;BME280;48008;51.204;6.766;2022-12-01T08:21:20;102201.28;;;5.79;98.03
62051;BME280;48008;51.204;6.766;2022-12-01T08:23:47;102199.16;;;5.86;98.19
62051;BME280;48008;51.204;6.766;2022-12-01T08:26:16;102199.81;;;5.89;98.69
62051;BME280;48008;51.204;6.766;2022-12-01T08:28:44;102194.38;;;5.92;98.46
62051;BME280;48008;51.204;6.766;2022-12-01T08:31:14;102194.06;;;5.99;98.24
62051;BME280;48008;51.204;6.766;2022-12-01T08:33:41;102199.44;;;5.97;97.36
62051;BME280;48008;51.204;6.766;2022-12-01T08:36:08;102200.41;;;5.94;97.72
62051;BME280;48008;51.204;6.766;2022-12-01T08:38:35;102204.06;;;5.92;97.20
62051;BME280;48008;51.204;6.766;2022-12-01T08:41:04;102208.38;;;5.93;97.54
62051;BME280;48008;51.204;6.766;2022-12-01T08:43:31;102207.47;;;6.10;97.42
62051;BME280;48008;51.204;6.766;2022-12-01T08:46:18;102213.50;;;6.12;97.10
62051;BME280;48008;51.204;6.766;2022-12-01T08:48:45;102214.38;;;5.96;97.02
62051;BME280;48008;51.204;6.766;2022-12-01T08:51:14;102208.38;;;6.09;97.10
62051;BME280;48008;51.204;6.766;2022-12-01T08:53:44;102207.59;;;6.23;97.48
62051;BME280;48008;51.204;6.766;2022-12-01T08:56:15;102209.28;;;6.24;96.48
62051;BME280;48008;51.204;6.766;2022-12-01T08:58:43;102209.88;;;6.29;95.92
62051;BME280;48008;51.204;6.766;2022-12-01T09:01:12;102207.09;;;6.16;96.04
62051;BME280;48008;51.204;6.766;2022-12-01T09:03:41;102207.56;;;6.08;95.67
62051;BME280;48008;51.204;6.766;2022-12-01T09:06:12;102214.63;;;6.08;96.43
62051;BME280;48008;51.204;6.766;2022-12-01T09:08:40;102222.31;;;6.11;96.37
62051;BME280;48008;51.204;6.766;2022-12-01T09:11:17;102213.66;;;5.93;96.30
62051;BME280;48008;51.204;6.766;2022-12-01T09:13:45;102229.16;;;5.99;96.98
62051;BME280;48008;51.204;6.766;2022-12-01T09:16:16;102219.22;;;6.04;96.65
62051;BME280;48008;51.204;6.766;2022-12-01T09:18:44;102215.72;;;6.04;96.23
62051;BME280;48008;51.204;6.766;2022-12-01T09:21:13;102227.38;;;6.00;96.16
62051;BME280;48008;51.204;6.766;2022-12-01T09:23:40;102228.69;;;5.91;96.79
62051;BME280;48008;51.204;6.766;2022-12-01T09:26:08;102228.88;;;6.04;96.92
62051;BME280;48008;51.204;6.766;2022-12-01T09:28:37;102220.13;;;6.03;96.79
62051;BME280;48008;51.204;6.766;2022-12-01T09:31:07;102224.06;;;5.96;96.92
62051;BME280;48008;51.204;6.766;2022-12-01T09:33:34;102230.50;;;6.06;97.46
62051;BME280;48008;51.204;6.766;2022-12-01T09:36:03;102224.56;;;6.03;96.62
62051;BME280;48008;51.204;6.766;2022-12-01T09:38:32;102229.09;;;6.01;96.84
62051;BME280;48008;51.204;6.766;2022-12-01T09:41:03;102228.81;;;6.05;96.48
62051;BME280;48008;51.204;6.766;2022-12-01T09:43:39;102223.81;;;6.01;97.03
62051;BME280;48008;51.204;6.766;2022-12-01T09:46:12;102220.13;;;5.87;97.84
62051;BME280;48008;51.204;6.766;2022-12-01T09:48:42;102225.97;;;5.92;97.67
62051;BME280;48008;51.204;6.766;2022-12-01T09:51:19;102217.41;;;5.89;98.36
62051;BME280;48008;51.204;6.766;2022-12-01T09:53:50;102215.31;;;5.95;97.29
62051;BME280;48008;51.204;6.766;2022-12-01T09:56:21;102220.06;;;6.05;97.55
62051;BME280;48008;51.204;6.766;2022-12-01T09:58:52;102218.47;;;6.02;96.64
62051;BME280;48008;51.204;6.766;2022-12-01T10:01:29;102213.03;;;6.20;97.97
62051;BME280;48008;51.204;6.766;2022-12-01T10:04:01;102215.75;;;6.18;97.27
62051;BME280;48008;51.204;6.766;2022-12-01T10:06:39;102215.69;;;6.20;95.97
62051;BME280;48008;51.204;6.766;2022-12-01T10:12:13;102215.72;;;6.04;96.88
62051;BME280;48008;51.204;6.766;2022-12-01T10:14:43;102205.44;;;5.99;97.42
62051;BME280;48008;51.204;6.766;2022-12-01T10:17:35;102201.16;;;6.12;97.54
62051;BME280;48008;51.204;6.766;2022-12-01T10:20:45;102203.75;;;6.28;97.13
62051;BME280;48008;51.204;6.766;2022-12-01T10:25:54;102205.88;;;6.22;96.93
62051;BME280;48008;51.204;6.766;2022-12-01T10:31:30;102215.09;;;6.14;96.05
62051;BME280;48008;51.204;6.766;2022-12-01T10:34:05;102205.31;;;6.17;96.05
62051;BME280;48008;51.204;6.766;2022-12-01T10:36:33;102205.56;;;6.28;96.18
62051;BME280;48008;51.204;6.766;2022-12-01T10:39:02;102198.19;;;6.19;95.60
62051;BME280;48008;51.204;6.766;2022-12-01T10:41:32;102196.47;;;6.18;95.58
62051;BME280;48008;51.204;6.766;2022-12-01T10:44:02;102195.94;;;6.27;95.47
62051;BME280;48008;51.204;6.766;2022-12-01T10:46:51;102196.34;;;6.35;94.69
62051;BME280;48008;51.204;6.766;2022-12-01T10:49:33;102191.44;;;5.99;96.74
62051;BME280;48008;51.204;6.766;2022-12-01T10:52:00;102188.44;;;5.89;97.56
62051;BME280;48008;51.204;6.766;2022-12-01T10:54:36;102191.66;;;5.94;98.03
62051;BME280;48008;51.204;6.766;2022-12-01T10:57:05;102189.81;;;5.96;98.65
62051;BME280;48008;51.204;6.766;2022-12-01T10:59:37;102184.78;;;5.91;98.12
62051;BME280;48008;51.204;6.766;2022-12-01T11:02:20;102190.50;;;6.00;98.41
62051;BME280;48008;51.204;6.766;2022-12-01T11:04:54;102189.38;;;6.04;98.25
62051;BME280;48008;51.204;6.766;2022-12-01T11:07:27;102189.38;;;6.04;97.66
62051;BME280;48008;51.204;6.766;2022-12-01T11:10:03;102193.16;;;6.14;97.53
62051;BME280;48008;51.204;6.766;2022-12-01T11:12:31;102188.66;;;6.16;98.06
62051;BME280;48008;51.204;6.766;2022-12-01T11:14:59;102189.16;;;6.23;98.06
62051;BME280;48008;51.204;6.766;2022-12-01T11:17:33;102190.16;;;6.20;98.77
62051;BME280;48008;51.204;6.766;2022-12-01T11:20:36;102183.59;;;6.27;98.81
62051;BME280;48008;51.204;6.766;2022-12-01T11:25:59;102191.31;;;6.00;98.94
62051;BME280;48008;51.204;6.766;2022-12-01T11:28:28;102188.03;;;5.96;99.25
62051;BME280;48008;51.204;6.766;2022-12-01T11:30:57;102188.28;;;6.08;99.33
62051;BME280;48008;51.204;6.766;2022-12-01T11:33:26;102192.13;;;6.02;98.54
62051;BME280;48008;51.204;6.766;2022-12-01T11:35:54;102184.22;;;6.02;98.92
62051;BME280;48008;51.204;6.766;2022-12-01T11:38:23;102181.56;;;6.02;97.84
62051;BME280;48008;51.204;6.766;2022-12-01T11:40:56;102182.75;;;5.96;97.97
62051;BME280;48008;51.204;6.766;2022-12-01T11:43:29;102181.75;;;5.99;98.28
62051;BME280;48008;51.204;6.766;2022-12-01T11:46:01;102170.19;;;5.86;97.95
62051;BME280;48008;51.204;6.766;2022-12-01T11:48:31;102186.06;;;6.00;97.86
62051;BME280;48008;51.204;6.766;2022-12-01T11:51:05;102178.84;;;5.88;95.49
62051;BME280;48008;51.204;6.766;2022-12-01T11:53:35;102180.78;;;6.00;96.40
62051;BME280;48008;51.204;6.766;2022-12-01T11:56:23;102174.56;;;6.17;95.67
62051;BME280;48008;51.204;6.766;2022-12-01T11:59:02;102175.78;;;6.11;93.70
62051;BME280;48008;51.204;6.766;2022-12-01T12:04:41;102171.84;;;6.33;92.28
62051;BME280;48008;51.204;6.766;2022-12-01T12:08:01;102180.25;;;6.40;90.14
62051;BME280;48008;51.204;6.766;2022-12-01T12:10:25;102172.41;;;6.38;88.98
62051;BME280;48008;51.204;6.766;2022-12-01T12:24:48;102168.97;;;6.66;86.63
62051;BME280;48008;51.204;6.766;2022-12-01T12:27:36;102165.19;;;6.56;85.42
62051;BME280;48008;51.204;6.766;2022-12-01T12:30:20;102155.28;;;6.45;83.93
62051;BME280;48008;51.204;6.766;2022-12-01T12:35:46;102157.59;;;6.66;84.72
62051;BME280;48008;51.204;6.766;2022-12-01T12:44:06;102155.03;;;6.93;83.63
62051;BME280;48008;51.204;6.766;2022-12-01T12:47:30;102149.19;;;7.02;83.08
62051;BME280;48008;51.204;6.766;2022-12-01T12:49:53;102142.47;;;6.97;82.96
62051;BME280;48008;51.204;6.766;2022-12-01T12:52:30;102151.63;;;6.91;83.41
62051;BME280;48008;51.204;6.766;2022-12-01T12:55:10;102149.47;;;6.69;84.71
62051;BME280;48008;51.204;6.766;2022-12-01T12:57:44;102144.00;;;6.43;85.22
62051;BME280;48008;51.204;6.766;2022-12-01T13:00:17;102139.19;;;6.36;86.97
62051;BME280;48008;51.204;6.766;2022-12-01T13:02:46;102143.22;;;6.27;85.84
62051;BME280;48008;51.204;6.766;2022-12-01T13:08:00;102139.22;;;6.50;85.54
62051;BME280;48008;51.204;6.766;2022-12-01T13:10:52;102141.38;;;6.58;85.89
62051;BME280;48008;51.204;6.766;2022-12-01T13:13:36;102138.25;;;6.80;85.63
62051;BME280;48008;51.204;6.766;2022-12-01T13:16:11;102132.97;;;6.94;84.95
62051;BME280;48008;51.204;6.766;2022-12-01T13:18:43;102133.28;;;6.89;83.44
62051;BME280;48008;51.204;6.766;2022-12-01T13:21:17;102122.88;;;7.01;82.62
62051;BME280;48008;51.204;6.766;2022-12-01T13:23:47;102126.47;;;6.85;82.91
62051;BME280;48008;51.204;6.766;2022-12-01T13:26:17;102127.06;;;6.76;81.45
62051;BME280;48008;51.204;6.766;2022-12-01T13:28:47;102129.31;;;6.82;81.89
62051;BME280;48008;51.204;6.766;2022-12-01T13:31:17;102119.88;;;6.78;82.25
62051;BME280;48008;51.204;6.766;2022-12-01T13:33:58;102124.50;;;6.89;82.36
62051;BME280;48008;51.204;6.766;2022-12-01T13:36:26;102112.59;;;6.96;81.91
62051;BME280;48008;51.204;6.766;2022-12-01T13:39:24;102117.41;;;7.04;82.16
62051;BME280;48008;51.204;6.766;2022-12-01T13:42:21;102112.78;;;7.07;83.16
62051;BME280;48008;51.204;6.766;2022-12-01T13:44:57;102107.50;;;7.07;81.86
62051;BME280;48008;51.204;6.766;2022-12-01T13:47:36;102104.44;;;6.86;81.26
62051;BME280;48008;51.204;6.766;2022-12-01T13:53:23;102110.88;;;6.53;81.66
62051;BME280;48008;51.204;6.766;2022-12-01T13:58:44;102114.81;;;6.75;83.52
62051;BME280;48008;51.204;6.766;2022-12-01T14:03:59;102113.28;;;6.85;82.28
62051;BME280;48008;51.204;6.766;2022-12-01T14:06:44;102119.72;;;6.67;83.08
62051;BME280;48008;51.204;6.766;2022-12-01T14:09:22;102113.97;;;6.46;82.34
62051;BME280;48008;51.204;6.766;2022-12-01T14:11:56;102118.31;;;6.61;83.27
62051;BME280;48008;51.204;6.766;2022-12-01T14:14:24;102119.63;;;6.54;82.32
62051;BME280;48008;51.204;6.766;2022-12-01T14:16:57;102117.47;;;6.61;83.11
62051;BME280;48008;51.204;6.766;2022-12-01T14:19:34;102115.19;;;6.69;83.16
62051;BME280;48008;51.204;6.766;2022-12-01T14:22:04;102122.44;;;6.80;82.79
62051;BME280;48008;51.204;6.766;2022-12-01T14:24:41;102114.44;;;6.67;81.80
62051;BME280;48008;51.204;6.766;2022-12-01T14:27:33;102121.13;;;6.58;81.47